Time;durP1;ratioP1;P1;durP2;ratioP2;P2;SDS_P1;SDS_P2;PMS_P1;PMS_P2;Temp;Humidity;BMP_temperature;BMP_pressure;BME280_temperature;BME280_humidity;BME280_pressure;Samples;Min_cycle;Max_cycle;Signal;HPM_P1;HPM_P2
2022/01/19 00:01:54;;;;;;;6.73;4.50;;;;;;;-0.35;44.33;100454.78;6274536;22;19989;-82
2022/01/19 00:07:01;;;;;;;6.47;3.07;;;;;;;-0.28;44.21;100455.28;6266087;22;20003;-82
2022/01/19 00:24:57;;;;;;;8.40;5.17;;;;;;;1.92;44.84;100835.00;6254692;22;19923;-78
2022/01/19 00:27:22;;;;;;;7.53;4.70;;;;;;;1.87;44.61;100811.00;6247462;22;19999;-79
2022/01/19 00:29:48;;;;;;;7.13;4.63;;;;;;;1.87;44.89;100816.19;6275302;22;19999;-79
2022/01/19 00:32:13;;;;;;;6.93;4.37;;;;;;;2.42;44.72;100906.72;6276715;22;20000;-78
2022/01/19 00:34:39;;;;;;;9.73;4.70;;;;;;;2.08;44.83;100862.72;6276440;22;20082;-78
2022/01/19 00:37:04;;;;;;;7.80;4.10;;;;;;;2.26;45.16;100895.53;6249597;22;20118;-79
2022/01/19 00:39:32;;;;;;;6.77;3.70;;;;;;;1.92;45.35;100865.41;6276461;22;19996;-78
2022/01/19 00:41:59;;;;;;;7.60;4.57;;;;;;;2.56;44.85;100942.38;6249365;22;20072;-78
2022/01/19 00:44:25;;;;;;;9.67;4.47;;;;;;;2.22;44.77;100912.25;6276668;22;20151;-79
2022/01/19 00:46:50;;;;;;;7.73;4.17;;;;;;;2.59;45.14;100977.84;6276684;22;20079;-78
2022/01/19 00:49:15;;;;;;;8.47;4.63;;;;;;;2.10;44.93;100898.19;6276054;22;20007;-78
2022/01/19 00:51:41;;;;;;;9.87;4.67;;;;;;;2.18;45.27;100937.66;6276349;22;19995;-78
2022/01/19 00:54:06;;;;;;;6.70;4.40;;;;;;;2.22;45.41;100935.69;6249805;22;20087;-78
2022/01/19 00:56:34;;;;;;;8.70;4.90;;;;;;;2.54;45.22;100967.69;6276830;22;19995;-78
2022/01/19 00:59:00;;;;;;;10.37;4.87;;;;;;;2.53;45.09;100963.41;6276122;22;20353;-79
2022/01/19 01:01:26;;;;;;;6.73;4.40;;;;;;;1.95;45.04;100878.25;6276085;22;19996;-79
2022/01/19 01:03:51;;;;;;;6.70;4.10;;;;;;;2.17;45.16;100902.09;6287412;22;20072;-79
2022/01/19 01:06:16;;;;;;;9.17;4.57;;;;;;;2.01;45.23;100874.44;6307146;22;19999;-78
2022/01/19 01:08:43;;;;;;;8.03;4.40;;;;;;;2.25;45.51;100919.91;6306932;22;20003;-78
2022/01/19 01:11:09;;;;;;;11.10;4.83;;;;;;;1.89;45.51;100866.44;6307187;22;19995;-78
2022/01/19 01:16:31;;;;;;;8.07;4.80;;;;;;;2.51;45.15;100973.94;6306890;22;20022;-78
2022/01/19 01:18:57;;;;;;;6.63;4.20;;;;;;;2.22;45.42;100923.50;6307044;22;20529;-78
2022/01/19 01:21:23;;;;;;;8.37;4.17;;;;;;;1.92;45.29;100913.13;6307360;22;20027;-78
2022/01/19 01:23:48;;;;;;;7.73;4.20;;;;;;;2.13;45.67;100923.22;6306561;22;20003;-78
2022/01/19 01:26:14;;;;;;;8.83;4.73;;;;;;;2.15;45.39;100939.59;6307145;22;19999;-78
2022/01/19 01:28:39;;;;;;;8.67;4.83;;;;;;;2.46;45.72;100980.34;6307234;22;19999;-79
2022/01/19 01:31:08;;;;;;;9.20;5.27;;;;;;;2.39;45.76;100973.81;6279340;22;20003;-79
2022/01/19 01:33:34;;;;;;;10.03;5.27;;;;;;;2.07;45.48;100949.63;6310666;22;19999;-79
2022/01/19 01:36:01;;;;;;;7.17;4.77;;;;;;;2.19;45.65;100954.13;6286607;22;20433;-79
2022/01/19 01:38:27;;;;;;;8.47;4.63;;;;;;;1.52;45.92;100840.88;6313530;22;19996;-79
2022/01/19 01:40:53;;;;;;;7.73;4.40;;;;;;;2.28;45.72;100973.63;6313261;22;19999;-78
2022/01/19 01:43:18;;;;;;;6.60;4.10;;;;;;;1.82;45.95;100927.59;6313162;22;19995;-79
2022/01/19 01:45:47;;;;;;;9.93;4.90;;;;;;;2.09;45.82;100955.59;6312406;22;19999;-78
2022/01/19 01:48:17;;;;;;;6.10;4.03;;;;;;;1.60;46.22;100880.31;6309067;22;19995;-79
2022/01/19 01:53:30;;;;;;;8.13;4.37;;;;;;;2.13;46.13;100972.72;6306748;22;20360;-78
2022/01/19 01:56:01;;;;;;;9.20;4.27;;;;;;;2.31;45.78;100979.47;6307203;22;20023;-78
2022/01/19 01:58:29;;;;;;;9.03;4.47;;;;;;;1.83;45.88;100921.47;6280457;22;20029;-79
2022/01/19 02:00:55;;;;;;;9.00;4.57;;;;;;;1.94;45.77;100930.44;6307319;22;20229;-79
2022/01/19 02:03:21;;;;;;;12.23;5.23;;;;;;;2.23;46.39;100963.47;6279442;22;19999;-79
2022/01/19 02:08:45;;;;;;;7.65;4.38;;;;;;;1.94;46.19;100913.03;6270289;22;19999;-79
2022/01/19 02:16:42;;;;;;;7.97;4.17;;;;;;;2.31;46.05;100966.47;6306576;22;20360;-78
2022/01/19 02:22:04;;;;;;;8.77;4.57;;;;;;;2.15;46.24;100939.59;6286642;22;20322;-78
2022/01/19 02:24:44;;;;;;;7.00;4.60;;;;;;;2.33;46.25;100971.56;6305996;22;20082;-79
2022/01/19 02:40:58;;;;;;;7.87;4.40;;;;;;;1.81;46.69;100912.91;6306683;22;20456;-79
2022/01/19 02:43:27;;;;;;;7.27;4.70;;;;;;;1.67;46.41;100880.78;6306254;22;19995;-79
2022/01/19 02:51:21;;;;;;;9.73;4.53;;;;;;;1.94;46.65;100940.84;6305923;22;20352;-78
2022/01/19 02:53:46;;;;;;;8.30;5.20;;;;;;;2.20;46.72;100964.44;6306197;22;19999;-79
2022/01/19 02:56:21;;;;;;;9.23;4.70;;;;;;;2.19;46.66;100977.56;6306806;22;19995;-78
2022/01/19 02:58:52;;;;;;;8.70;4.43;;;;;;;2.18;46.68;100961.09;6307194;22;20006;-79
2022/01/19 03:09:23;;;;;;;8.90;5.37;;;;;;;1.71;46.86;100893.53;6307087;22;20399;-79
2022/01/19 03:11:49;;;;;;;10.80;6.47;;;;;;;2.00;46.73;100940.50;6306299;22;19991;-78
2022/01/19 03:14:15;;;;;;;9.87;6.07;;;;;;;2.17;46.67;100993.28;6278454;22;20000;-78
2022/01/19 03:16:40;;;;;;;10.80;6.10;;;;;;;1.77;47.12;100911.41;6279435;22;19987;-78
2022/01/19 03:19:08;;;;;;;9.80;5.23;;;;;;;1.53;46.96;100876.38;6278602;22;19999;-78
2022/01/19 03:21:34;;;;;;;7.97;4.70;;;;;;;1.80;46.92;100931.22;6305911;22;20033;-78
2022/01/19 03:24:00;;;;;;;7.53;5.03;;;;;;;1.88;46.84;100929.03;6278044;22;20003;-79
2022/01/19 03:26:25;;;;;;;7.87;4.90;;;;;;;1.91;46.75;100958.31;6305979;22;20006;-78
2022/01/19 03:28:51;;;;;;;10.93;6.37;;;;;;;2.20;47.01;100982.69;6278541;22;20003;-78
2022/01/19 03:31:16;;;;;;;9.43;5.17;;;;;;;1.53;46.69;100869.41;6307157;22;20003;-79
2022/01/19 03:33:42;;;;;;;8.43;4.50;;;;;;;2.13;46.87;100967.50;6306116;22;20006;-79
2022/01/19 03:36:07;;;;;;;8.53;4.60;;;;;;;1.87;46.83;100922.97;6306065;22;20022;-79
2022/01/19 03:38:33;;;;;;;7.30;4.77;;;;;;;2.02;46.98;100973.34;6306154;22;19999;-79
2022/01/19 03:40:58;;;;;;;6.00;4.20;;;;;;;1.59;46.81;100910.69;6306324;22;20352;-78
2022/01/19 03:43:24;;;;;;;7.97;4.40;;;;;;;1.44;46.86;100905.50;6305733;22;20496;-78
2022/01/19 03:45:54;;;;;;;7.93;4.67;;;;;;;1.67;46.93;100954.53;6278383;22;20357;-79
2022/01/19 03:50:46;;;;;;;8.00;4.90;;;;;;;1.69;46.98;100947.47;6305882;22;20082;-79
2022/01/19 03:53:12;;;;;;;11.40;5.97;;;;;;;1.97;46.81;101008.38;6305644;22;20034;-78
2022/01/19 03:55:38;;;;;;;9.93;5.33;;;;;;;1.92;46.66;101035.53;6278298;22;20002;-79
2022/01/19 03:58:03;;;;;;;9.57;5.43;;;;;;;1.31;47.01;100892.34;6278071;22;20006;-78
2022/01/19 04:00:31;;;;;;;10.30;5.60;;;;;;;1.84;46.94;100993.47;6305422;22;20488;-78
2022/01/19 04:02:56;;;;;;;9.87;6.00;;;;;;;1.19;46.84;100895.63;6308027;22;20459;-79
2022/01/19 04:05:26;;;;;;;10.07;5.20;;;;;;;1.72;46.87;100982.91;6314384;22;20003;-78
2022/01/19 04:07:52;;;;;;;8.97;5.87;;;;;;;1.39;46.87;100936.97;6314293;22;19991;-78
2022/01/19 04:10:18;;;;;;;11.47;5.80;;;;;;;1.17;46.75;100910.47;6314454;22;20317;-79
2022/01/19 04:15:11;;;;;;;13.27;6.37;;;;;;;1.26;46.77;100921.22;6315002;22;20386;-79
2022/01/19 04:17:41;;;;;;;9.73;5.40;;;;;;;0.64;46.89;100826.66;6313347;22;19995;-79
2022/01/19 04:20:07;;;;;;;12.70;7.10;;;;;;;0.69;47.25;100835.97;6307613;22;20454;-79
2022/01/19 04:22:33;;;;;;;12.93;6.33;;;;;;;1.80;47.44;101011.94;6307620;22;20023;-79
2022/01/19 04:24:58;;;;;;;9.73;6.00;;;;;;;1.53;47.27;100980.47;6300388;22;20020;-83
2022/01/19 04:29:59;;;;;;;10.10;6.10;;;;;;;1.85;46.86;101015.97;6300173;22;20058;-82
2022/01/19 05:16:48;;;;;;;13.77;6.73;;;;;;;1.67;47.34;101122.91;6246601;22;19999;-83
2022/01/19 05:19:14;;;;;;;12.30;7.60;;;;;;;-0.52;47.12;100758.41;6280608;22;19988;-83
2022/01/19 05:24:14;;;;;;;10.00;6.73;;;;;;;1.30;47.33;101044.16;6230183;22;20689;-79
2022/01/19 05:26:40;;;;;;;10.13;6.27;;;;;;;0.90;47.47;100965.66;6276192;22;19999;-79
2022/01/19 05:29:05;;;;;;;9.17;5.80;;;;;;;1.22;47.67;101020.31;6276463;22;20000;-79
2022/01/19 05:31:31;;;;;;;11.77;6.87;;;;;;;1.16;47.62;101012.84;6276380;22;20006;-79
2022/01/19 05:33:56;;;;;;;9.60;5.50;;;;;;;1.40;47.61;101047.94;6276636;22;20042;-79
2022/01/19 05:36:22;;;;;;;10.93;5.80;;;;;;;1.01;47.66;100977.25;6277781;22;20003;-79
2022/01/19 05:38:48;;;;;;;9.37;5.70;;;;;;;1.37;47.50;101034.28;6277251;22;20073;-79
2022/01/19 05:41:13;;;;;;;11.40;5.30;;;;;;;1.41;47.34;101038.38;6277303;22;20433;-79
2022/01/19 05:43:39;;;;;;;11.00;6.60;;;;;;;1.15;47.46;101000.75;6277372;22;20049;-79
2022/01/19 05:46:04;;;;;;;10.83;6.00;;;;;;;1.11;47.38;101012.25;6250265;22;20453;-79
2022/01/19 05:48:30;;;;;;;10.97;6.60;;;;;;;0.58;47.35;100920.56;6276745;22;20070;-79
2022/01/19 05:50:55;;;;;;;13.03;7.13;;;;;;;0.97;47.60;100991.34;6276161;22;20022;-79
2022/01/19 05:53:21;;;;;;;10.00;6.17;;;;;;;1.23;47.45;101035.84;6248931;22;19999;-79
2022/01/19 05:55:46;;;;;;;14.17;7.00;;;;;;;1.63;47.61;101114.41;6249185;22;20461;-79
2022/01/19 05:58:12;;;;;;;14.03;7.80;;;;;;;1.05;47.65;100991.78;6276137;22;20054;-79
2022/01/19 06:00:38;;;;;;;14.20;7.50;;;;;;;1.68;47.49;101091.56;6275792;22;20047;-79
2022/01/19 06:03:04;;;;;;;17.17;7.93;;;;;;;0.62;47.63;100923.84;6279716;22;20003;-79
2022/01/19 06:05:30;;;;;;;13.00;7.63;;;;;;;1.57;47.54;101089.56;6286333;22;20003;-79
2022/01/19 06:08:11;;;;;;;15.03;7.63;;;;;;;1.21;47.63;101021.25;6313163;22;20566;-79
2022/01/19 06:10:43;;;;;;;15.48;9.55;;;;;;;1.02;47.69;100990.19;6312098;22;19995;-79
2022/01/19 06:13:13;;;;;;;13.68;10.50;;;;;;;0.76;47.56;100964.72;6311773;22;19995;-79
2022/01/19 06:15:38;;;;;;;17.73;9.50;;;;;;;1.50;47.74;101080.41;6285362;22;20002;-79
2022/01/19 06:18:04;;;;;;;13.60;9.07;;;;;;;1.68;47.41;101116.78;6310823;22;20004;-79
2022/01/19 06:20:30;;;;;;;11.37;7.50;;;;;;;1.39;47.56;101059.28;6307379;22;20023;-79
2022/01/19 06:22:55;;;;;;;14.03;8.73;;;;;;;1.36;47.54;101041.25;6307131;22;20002;-79
2022/01/19 06:25:21;;;;;;;16.80;9.37;;;;;;;1.62;47.68;101078.06;6307074;22;20007;-79
2022/01/19 06:27:46;;;;;;;16.30;9.30;;;;;;;0.93;47.58;100972.47;6305800;22;20080;-79
2022/01/19 06:30:12;;;;;;;16.27;8.40;;;;;;;1.64;47.60;101074.44;6306214;22;19999;-79
2022/01/19 06:32:38;;;;;;;18.27;9.50;;;;;;;1.68;47.66;101086.38;6306488;22;20045;-79
2022/01/19 06:35:05;;;;;;;15.40;8.53;;;;;;;1.68;47.51;101093.34;6307078;22;20052;-79
2022/01/19 06:37:30;;;;;;;16.97;9.23;;;;;;;1.61;47.33;101081.59;6306858;22;20373;-79
2022/01/19 06:39:56;;;;;;;12.23;8.70;;;;;;;1.39;47.90;101053.25;6279445;22;20049;-79
2022/01/19 06:42:21;;;;;;;17.73;8.17;;;;;;;1.83;47.76;101115.94;6306788;22;19995;-79
2022/01/19 06:44:46;;;;;;;17.83;8.33;;;;;;;1.53;47.70;101069.81;6306907;22;19999;-79
2022/01/19 06:47:12;;;;;;;12.37;8.47;;;;;;;1.44;47.44;101059.88;6307002;22;20049;-79
2022/01/19 06:49:37;;;;;;;13.23;8.33;;;;;;;1.76;47.60;101104.19;6306001;22;20022;-79
2022/01/19 06:52:04;;;;;;;11.80;7.33;;;;;;;1.44;47.38;101056.44;6305587;22;20434;-79
2022/01/19 06:54:30;;;;;;;14.13;8.17;;;;;;;0.95;47.31;100970.63;6305848;22;20062;-79
2022/01/19 06:56:55;;;;;;;12.30;8.00;;;;;;;1.50;47.43;101085.59;6305492;22;20026;-80
2022/01/19 06:59:21;;;;;;;11.83;7.27;;;;;;;1.38;47.18;101043.75;6278263;22;20073;-79
2022/01/19 07:01:46;;;;;;;13.07;8.13;;;;;;;2.05;47.17;101163.31;6305843;22;20006;-79
2022/01/19 07:04:15;;;;;;;13.40;6.53;;;;;;;1.81;47.18;101121.22;6281733;22;20086;-79
2022/01/19 07:06:40;;;;;;;14.70;7.80;;;;;;;1.12;47.43;100987.91;6279600;22;20021;-79
2022/01/19 07:09:06;;;;;;;18.13;8.60;;;;;;;1.73;47.59;101105.19;6282838;22;20031;-79
2022/01/19 07:11:31;;;;;;;16.93;8.30;;;;;;;1.78;47.38;101100.56;6281237;22;19995;-79
2022/01/19 07:13:57;;;;;;;17.93;8.60;;;;;;;1.98;47.17;101117.69;6310004;22;19999;-79
2022/01/19 07:16:23;;;;;;;12.20;7.57;;;;;;;2.03;47.24;101112.22;6280281;22;20007;-79
2022/01/19 07:18:49;;;;;;;13.63;7.67;;;;;;;2.14;47.25;101135.94;6306312;22;20086;-79
2022/01/19 07:21:15;;;;;;;10.87;6.60;;;;;;;1.73;47.03;101070.50;6277657;22;20002;-79
2022/01/19 07:23:40;;;;;;;10.90;6.87;;;;;;;1.58;46.94;101035.72;6303835;22;20243;-79
2022/01/19 07:26:06;;;;;;;14.80;8.00;;;;;;;1.74;46.94;101054.78;6325318;22;19991;-82
2022/01/19 07:33:44;;;;;;;10.40;6.97;;;;;;;-0.26;46.35;100738.88;6214117;22;20024;-80
2022/01/19 07:41:20;;;;;;;15.27;9.27;;;;;;;0.45;46.75;100844.16;6205238;22;20022;-82
2022/01/19 07:46:21;;;;;;;11.57;6.13;;;;;;;-0.58;46.61;100730.16;6233633;22;20025;-81
2022/01/19 07:48:47;;;;;;;13.13;8.23;;;;;;;0.38;46.68;100866.19;6271300;22;19988;-81
2022/01/19 07:51:13;;;;;;;10.83;6.70;;;;;;;-0.83;46.73;100663.13;6268094;22;20003;-81
2022/01/19 07:53:38;;;;;;;11.87;7.07;;;;;;;-0.29;46.54;100746.84;6271002;22;20019;-80
2022/01/19 07:56:05;;;;;;;13.07;7.50;;;;;;;1.41;46.60;101025.38;6263670;22;19996;-80
2022/01/19 07:58:31;;;;;;;11.07;6.13;;;;;;;1.39;46.43;100964.75;6294501;22;20000;-80
2022/01/19 08:00:57;;;;;;;13.37;7.30;;;;;;;2.60;46.02;101230.66;6275598;22;20467;-81
2022/01/19 08:03:34;;;;;;;9.23;6.20;;;;;;;-0.52;45.89;100671.03;6290462;22;19996;-80
2022/01/19 08:06:04;;;;;;;12.27;6.20;;;;;;;2.57;45.93;101162.22;6316118;22;19999;-80
2022/01/19 08:08:29;;;;;;;11.40;5.97;;;;;;;2.04;45.85;101101.72;6318618;22;20007;-79
2022/01/19 08:10:55;;;;;;;11.07;5.93;;;;;;;1.75;46.07;101053.88;6309976;22;20043;-79
2022/01/19 08:13:21;;;;;;;11.37;5.93;;;;;;;1.91;46.21;101082.50;6309313;22;20010;-79
2022/01/19 08:15:47;;;;;;;8.30;5.80;;;;;;;2.06;46.36;101091.22;6313473;22;20042;-80
2022/01/19 08:18:13;;;;;;;9.20;6.00;;;;;;;2.29;46.33;101135.09;6315337;22;20007;-80
2022/01/19 08:20:42;;;;;;;10.83;5.93;;;;;;;1.90;46.59;101078.22;6315693;22;19999;-80
2022/01/19 08:23:08;;;;;;;11.77;6.77;;;;;;;2.61;46.19;101181.97;6314281;22;20003;-80
2022/01/19 08:25:33;;;;;;;10.47;6.60;;;;;;;2.49;46.08;101152.22;6284595;22;20026;-80
2022/01/19 08:27:59;;;;;;;13.77;8.40;;;;;;;2.06;46.28;101067.78;6302450;22;19995;-81
2022/01/19 08:30:24;;;;;;;11.30;6.53;;;;;;;2.54;45.93;101137.16;6299928;22;20003;-82
2022/01/19 08:32:50;;;;;;;33.10;8.30;;;;;;;2.58;45.84;101138.66;6329720;22;19984;-81
2022/01/19 08:35:15;;;;;;;11.53;7.77;;;;;;;2.12;45.90;101049.19;6300003;22;20086;-81
2022/01/19 08:37:41;;;;;;;12.70;8.13;;;;;;;2.20;45.67;101081.69;6296442;22;20064;-81
2022/01/19 08:40:08;;;;;;;14.50;7.07;;;;;;;2.63;45.78;101112.31;6327587;22;20054;-81
2022/01/19 08:42:33;;;;;;;14.47;7.30;;;;;;;2.90;46.11;101159.44;6287931;22;20357;-79
2022/01/19 08:45:05;;;;;;;16.97;8.27;;;;;;;3.00;45.67;101173.66;6311439;22;20000;-81
2022/01/19 08:47:31;;;;;;;13.77;7.72;;;;;;;2.71;45.80;101125.75;6316749;22;20019;-80
2022/01/19 08:49:56;;;;;;;12.57;7.97;;;;;;;2.40;45.78;101038.06;6328571;22;20006;-81
2022/01/19 08:52:22;;;;;;;12.10;7.33;;;;;;;2.90;45.76;101118.53;6332709;22;19995;-81
2022/01/19 08:54:48;;;;;;;11.87;7.30;;;;;;;3.24;45.86;101159.13;6332102;22;19975;-81
2022/01/19 08:57:13;;;;;;;14.87;7.33;;;;;;;3.02;45.75;101135.25;6326330;22;20014;-81
2022/01/19 08:59:39;;;;;;;13.87;6.90;;;;;;;2.08;45.51;100953.91;6328680;22;20067;-81
2022/01/19 09:02:06;;;;;;;10.90;7.40;;;;;;;3.32;45.40;101149.09;6324761;22;20029;-81
2022/01/19 09:04:31;;;;;;;11.80;7.63;;;;;;;3.32;45.37;101159.53;6326806;22;20004;-81
2022/01/19 09:06:59;;;;;;;15.60;9.67;;;;;;;2.52;45.45;101025.13;6299649;22;20025;-81
2022/01/19 09:09:25;;;;;;;11.63;7.50;;;;;;;3.39;45.43;101147.78;6325106;22;20007;-81
2022/01/19 09:11:51;;;;;;;14.00;7.80;;;;;;;3.11;44.94;101093.78;6293620;22;19995;-81
2022/01/19 09:14:16;;;;;;;12.33;6.27;;;;;;;3.10;44.66;101104.31;6289129;22;20002;-81
2022/01/19 09:16:43;;;;;;;11.03;6.50;;;;;;;3.36;45.04;101121.84;6291241;22;20015;-81
2022/01/19 09:19:10;;;;;;;12.07;6.30;;;;;;;3.50;44.48;101145.34;6319170;22;19995;-81
2022/01/19 09:21:36;;;;;;;11.47;7.07;;;;;;;2.85;44.34;101035.31;6322368;22;20002;-81
2022/01/19 09:24:02;;;;;;;12.03;6.87;;;;;;;3.33;43.93;101089.88;6296037;22;20003;-80
2022/01/19 09:26:30;;;;;;;8.80;6.83;;;;;;;3.16;44.16;101046.53;6314209;22;19999;-80
2022/01/19 09:28:56;;;;;;;10.93;7.10;;;;;;;3.68;44.47;101135.53;6314418;22;20000;-80
2022/01/19 09:31:23;;;;;;;9.97;5.97;;;;;;;3.32;44.31;101062.09;6314699;22;20377;-79
2022/01/19 09:33:55;;;;;;;11.30;6.90;;;;;;;3.49;43.88;101070.56;6319424;22;19999;-80
2022/01/19 09:36:35;;;;;;;12.03;7.03;;;;;;;3.66;43.82;101097.41;6330999;22;20022;-80
2022/01/19 09:39:05;;;;;;;11.67;6.97;;;;;;;3.82;43.73;101100.75;6333002;22;20043;-81
2022/01/19 09:41:31;;;;;;;9.80;6.10;;;;;;;3.34;43.45;101013.25;6302349;22;20006;-80
2022/01/19 09:43:56;;;;;;;10.40;6.57;;;;;;;3.64;42.80;101042.66;6327075;22;20025;-81
2022/01/19 09:46:22;;;;;;;10.60;7.17;;;;;;;4.06;42.37;101112.25;6296032;22;20011;-80
2022/01/19 09:48:48;;;;;;;8.57;6.50;;;;;;;3.49;42.80;100973.13;6300295;22;20003;-80
2022/01/19 09:51:14;;;;;;;11.93;6.10;;;;;;;4.04;42.87;101047.97;6329327;22;20004;-81
2022/01/19 09:53:41;;;;;;;10.30;6.20;;;;;;;3.95;42.49;101025.88;6301285;22;19995;-80
2022/01/19 09:56:07;;;;;;;8.77;6.23;;;;;;;3.36;42.05;100930.44;6298807;22;20006;-81
2022/01/19 09:58:33;;;;;;;12.80;6.40;;;;;;;3.90;42.16;100993.97;6306762;22;20003;-81
2022/01/19 10:00:58;;;;;;;10.63;6.53;;;;;;;4.51;42.21;101094.56;6318777;22;20059;-78
2022/01/19 10:03:26;;;;;;;9.17;5.80;;;;;;;4.55;42.12;101095.19;6322861;22;20062;-80
2022/01/19 10:06:07;;;;;;;13.63;7.93;;;;;;;4.65;41.41;101085.78;6329731;22;20003;-78
2022/01/19 10:08:38;;;;;;;11.80;6.80;;;;;;;4.73;41.95;101097.41;6306228;22;20390;-78
2022/01/19 10:11:16;;;;;;;11.60;6.97;;;;;;;4.66;42.22;101048.22;6305867;22;20428;-78
2022/01/19 10:17:00;;;;;;;11.87;6.47;;;;;;;4.97;41.33;101071.38;6306111;22;20021;-78
2022/01/19 10:19:49;;;;;;;11.77;5.93;;;;;;;4.80;39.79;101040.28;6305673;22;20003;-78
2022/01/19 10:22:20;;;;;;;10.03;6.30;;;;;;;4.89;40.39;101063.19;6276621;22;20483;-77
2022/01/19 10:25:00;;;;;;;11.43;6.10;;;;;;;4.98;40.93;101061.75;6303110;22;20518;-78
2022/01/19 10:27:34;;;;;;;10.17;7.13;;;;;;;5.02;39.76;101061.41;6304798;22;19995;-77
2022/01/19 10:30:03;;;;;;;10.23;6.23;;;;;;;5.00;40.22;101060.69;6305371;22;20054;-77
2022/01/19 10:32:32;;;;;;;9.83;6.67;;;;;;;4.75;40.49;101003.13;6304919;22;19999;-78
2022/01/19 10:35:13;;;;;;;11.07;6.47;;;;;;;4.75;40.05;100974.34;6304851;22;19996;-78
2022/01/19 10:37:38;;;;;;;13.33;7.10;;;;;;;5.19;40.28;101028.84;6305073;22;20002;-78
2022/01/19 10:40:04;;;;;;;9.87;5.90;;;;;;;4.82;40.36;100957.28;6305819;22;20349;-78
2022/01/19 10:42:32;;;;;;;9.37;5.80;;;;;;;4.89;39.94;100957.69;6277840;22;20005;-78
2022/01/19 10:45:01;;;;;;;9.63;5.77;;;;;;;4.77;39.77;100930.59;6305605;22;20011;-78
2022/01/19 10:47:38;;;;;;;8.83;5.10;;;;;;;5.37;39.02;101030.19;6305463;22;20423;-78
2022/01/19 10:50:05;;;;;;;9.37;5.73;;;;;;;5.08;39.53;100990.31;6304324;22;20453;-78
2022/01/19 10:52:42;;;;;;;8.10;5.00;;;;;;;4.84;37.48;100937.06;6303868;22;20027;-78
2022/01/19 10:55:11;;;;;;;9.93;5.50;;;;;;;5.39;39.49;101017.81;6304595;22;20122;-78
2022/01/19 10:57:39;;;;;;;12.97;6.70;;;;;;;4.98;39.63;100947.41;6304613;22;19999;-78
2022/01/19 11:00:17;;;;;;;11.67;6.67;;;;;;;5.25;38.77;100976.06;6304811;22;20451;-78
2022/01/19 11:02:44;;;;;;;10.63;5.67;;;;;;;5.46;39.10;101014.78;6305289;22;20436;-79
2022/01/19 11:05:10;;;;;;;12.37;5.50;;;;;;;5.50;39.37;101006.59;6305106;22;20022;-77
2022/01/19 11:07:36;;;;;;;8.90;6.00;;;;;;;5.57;39.17;101004.38;6304178;22;20074;-78
2022/01/19 11:12:39;;;;;;;9.20;5.53;;;;;;;5.52;39.37;100980.28;6303723;22;19999;-78
2022/01/19 11:15:07;;;;;;;10.50;7.17;;;;;;;5.01;39.11;100897.47;6305097;22;19998;-78
2022/01/19 11:17:33;;;;;;;12.27;7.87;;;;;;;5.28;39.36;100948.81;6303768;22;20003;-78
2022/01/19 11:20:07;;;;;;;11.77;6.23;;;;;;;5.45;39.38;100972.03;6305070;22;20429;-77
2022/01/19 11:22:35;;;;;;;11.53;6.50;;;;;;;5.47;39.27;100958.81;6304668;22;19995;-78
2022/01/19 11:25:03;;;;;;;11.30;6.50;;;;;;;5.48;39.31;100953.47;6276564;22;20015;-79
2022/01/19 11:27:42;;;;;;;13.10;7.00;;;;;;;5.27;39.41;100929.66;6304262;22;20049;-79
2022/01/19 11:30:19;;;;;;;15.80;8.27;;;;;;;5.42;39.85;100959.16;6304533;22;19999;-79
2022/01/19 11:33:24;;;;;;;10.63;6.53;;;;;;;5.47;39.38;100949.19;6304933;22;19996;-80
2022/01/19 11:35:51;;;;;;;13.57;8.97;;;;;;;5.50;39.54;100937.63;6302931;22;20023;-80
2022/01/19 11:38:45;;;;;;;14.33;7.67;;;;;;;5.48;39.20;100942.16;6303058;22;19995;-80
2022/01/19 11:41:10;;;;;;;14.83;7.30;;;;;;;5.46;39.29;100933.56;6304234;22;19999;-79
2022/01/19 11:43:39;;;;;;;14.33;6.60;;;;;;;5.44;39.34;100938.91;6275196;22;20437;-79
2022/01/19 11:46:24;;;;;;;12.10;6.77;;;;;;;5.06;39.41;100870.97;6303834;22;20015;-79
2022/01/19 11:48:50;;;;;;;10.97;7.20;;;;;;;5.31;39.48;100907.53;6304296;22;20018;-79
2022/01/19 11:51:38;;;;;;;9.63;5.43;;;;;;;5.29;39.09;100906.00;6277401;22;20006;-79
2022/01/19 11:54:15;;;;;;;9.40;6.73;;;;;;;5.48;39.49;100923.81;6276593;22;20006;-79
2022/01/19 11:56:58;;;;;;;11.57;6.20;;;;;;;5.50;39.47;100921.91;6277132;22;20015;-79
2022/01/19 11:59:34;;;;;;;10.97;5.87;;;;;;;5.14;39.36;100873.84;6304407;22;20002;-80
2022/01/19 12:02:21;;;;;;;9.53;5.87;;;;;;;5.47;38.89;100911.66;6302943;22;20010;-81
2022/01/19 12:04:54;;;;;;;9.80;5.87;;;;;;;5.50;39.17;100917.53;6301723;22;20003;-79
2022/01/19 12:07:55;;;;;;;11.57;6.70;;;;;;;5.53;39.50;100916.47;6271670;22;19999;-80
2022/01/19 12:10:43;;;;;;;10.30;5.57;;;;;;;5.54;39.43;100916.34;6300518;22;20062;-79
2022/01/19 12:16:33;;;;;;;7.83;5.00;;;;;;;5.61;39.25;100901.84;6302008;22;20405;-79
2022/01/19 12:19:10;;;;;;;16.40;5.93;;;;;;;5.62;38.68;100885.19;6304674;22;20348;-79
2022/01/19 12:21:44;;;;;;;9.33;5.83;;;;;;;5.64;38.36;100877.22;6303902;22;19999;-79
2022/01/19 12:24:26;;;;;;;11.57;7.10;;;;;;;5.67;38.93;100871.75;6303359;22;19999;-80
2022/01/19 12:27:13;;;;;;;9.90;6.13;;;;;;;5.65;38.88;100864.00;6304984;22;20349;-79
2022/01/19 12:29:40;;;;;;;12.00;6.40;;;;;;;5.70;39.03;100871.50;6304711;22;20002;-80
2022/01/19 12:32:18;;;;;;;10.47;6.17;;;;;;;5.70;38.22;100861.03;6305354;22;20008;-82
2022/01/19 12:34:47;;;;;;;14.33;9.60;;;;;;;5.74;38.77;100859.84;6304474;22;20541;-79
2022/01/19 12:37:37;;;;;;;14.53;8.23;;;;;;;5.21;38.57;100790.50;6305260;22;20003;-79
2022/01/19 12:40:24;;;;;;;13.23;7.43;;;;;;;5.75;37.09;100866.75;6275400;22;20079;-79
2022/01/19 12:42:59;;;;;;;9.17;4.87;;;;;;;5.54;37.24;100844.78;6281113;22;20023;-79
2022/01/19 12:45:35;;;;;;;8.63;4.50;;;;;;;5.28;37.64;100797.78;6304450;22;19999;-81
2022/01/19 12:48:05;;;;;;;8.67;4.90;;;;;;;5.26;37.71;100789.22;6305755;22;20080;-80
2022/01/19 12:50:37;;;;;;;8.17;4.60;;;;;;;5.29;37.37;100780.28;6306376;22;20002;-81
2022/01/19 12:53:14;;;;;;;9.53;4.90;;;;;;;5.73;37.17;100856.41;6305472;22;20084;-82
2022/01/19 12:55:42;;;;;;;8.50;5.60;;;;;;;5.11;37.17;100758.91;6306631;22;19998;-81
2022/01/19 12:58:11;;;;;;;11.20;6.90;;;;;;;4.60;37.38;100667.59;6277928;22;20014;-81
2022/01/19 13:00:37;;;;;;;13.37;6.00;;;;;;;5.27;37.53;100790.03;6304323;22;19999;-81
2022/01/19 13:03:15;;;;;;;8.27;4.77;;;;;;;5.74;37.07;100842.34;6305912;22;20099;-79
2022/01/19 13:05:50;;;;;;;11.00;6.27;;;;;;;5.79;37.15;100836.75;6305588;22;20050;-80
2022/01/19 13:08:27;;;;;;;10.93;5.63;;;;;;;5.80;37.15;100848.91;6304935;22;20004;-80
2022/01/19 13:10:55;;;;;;;8.87;5.73;;;;;;;5.39;37.00;100784.72;6305634;22;20045;-81
2022/01/19 13:16:02;;;;;;;8.33;4.70;;;;;;;5.73;37.06;100813.63;6305743;22;20078;-80
2022/01/19 13:18:43;;;;;;;10.80;5.47;;;;;;;5.05;36.43;100738.41;6305139;22;20083;-79
2022/01/19 13:21:13;;;;;;;9.57;6.30;;;;;;;5.86;36.35;100842.38;6304417;22;20045;-79
2022/01/19 13:23:54;;;;;;;14.67;7.63;;;;;;;5.88;36.40;100841.31;6276811;22;19996;-78
2022/01/19 13:26:20;;;;;;;11.83;7.10;;;;;;;5.39;36.66;100765.56;6305572;22;20031;-78
2022/01/19 13:28:46;;;;;;;11.70;5.83;;;;;;;5.38;36.75;100751.63;6306139;22;20033;-77
2022/01/19 13:31:12;;;;;;;12.23;6.93;;;;;;;5.67;36.44;100780.03;6304878;22;20070;-78
2022/01/19 13:33:40;;;;;;;13.03;8.30;;;;;;;5.31;36.44;100719.00;6304030;22;20079;-78
2022/01/19 13:36:06;;;;;;;18.57;9.90;;;;;;;6.00;37.00;100821.25;6302951;22;19983;-80
2022/01/19 13:38:32;;;;;;;9.70;7.07;;;;;;;5.63;37.10;100766.34;6305061;22;20010;-78
2022/01/19 13:41:06;;;;;;;9.40;7.13;;;;;;;6.02;37.09;100820.19;6277874;22;20354;-77
2022/01/19 13:43:36;;;;;;;9.60;6.60;;;;;;;6.05;37.61;100821.72;6306262;22;20002;-79
2022/01/19 13:46:13;;;;;;;12.40;6.10;;;;;;;5.73;37.70;100775.16;6277786;22;20011;-80
2022/01/19 13:48:40;;;;;;;18.93;11.07;;;;;;;5.65;37.62;100742.63;6304958;22;20467;-78
2022/01/19 13:51:10;;;;;;;24.03;14.27;;;;;;;6.09;37.25;100820.53;6305608;22;20005;-79
2022/01/19 13:53:39;;;;;;;17.47;9.73;;;;;;;5.81;37.47;100779.81;6305994;22;20019;-79
2022/01/19 13:56:14;;;;;;;16.97;9.60;;;;;;;6.09;37.64;100814.47;6278962;22;20452;-77
2022/01/19 13:58:48;;;;;;;13.43;8.77;;;;;;;5.53;37.26;100735.72;6306104;22;19988;-80